16:07
Airports
Links
Donate
Help keep this website running!
PayPal
Bitcoin
METAR
LIBR 191545Z 20009KT 9999 FEW025 22/16 Q1018 NOSIG
Current Weather Conditions at LIBR
VFR 15:45:00 19-10-17
Altimeter:30.06 hg
Temp:22.0°c 72°f
Dew point:16.0°c 61°f
Wind:9 knots, 10.4 mph, 5 m/s, from 200°
Visibility:6.21 statute miles
2500(FEW) A few
No significant weather changes expected within 2 hours.
Past METAR reports
VFR 15:15:00 19-10-17
Altimeter:30.06 hg
Temp:22.0°c 72°f
Dew point:19.0°c 66°f
Wind:9 knots, 10.4 mph, 5 m/s, from 100°
Visibility:6.21 statute miles
2000(SCT) Scattered
No significant weather changes expected within 2 hours.
LIBR 191515Z 10009KT 9999 SCT020 22/19 Q1018 NOSIG
VFR 14:45:00 19-10-17
Altimeter:30.06 hg
Temp:22.0°c 72°f
Dew point:19.0°c 66°f
Wind:10 knots, 11.5 mph, 5 m/s, from 100°
Visibility:6.21 statute miles
2000(SCT) Scattered
No significant weather changes expected within 2 hours.
LIBR 191445Z 10010KT 9999 SCT020 22/19 Q1018 NOSIG RMK SCT VIS MIN 9999 WIND THR31 12004KT BLU
VFR 14:15:00 19-10-17
Altimeter:30.06 hg
Temp:22.0°c 72°f
Dew point:19.0°c 66°f
Wind:11 knots, 12.7 mph, 6 m/s, from 100°
Visibility:6.21 statute miles
2000(SCT) Scattered
No significant weather changes expected within 2 hours.
LIBR 191415Z 10011KT 9999 SCT020 22/19 Q1018 NOSIG
VFR 13:45:00 19-10-17
Altimeter:30.06 hg
Temp:22.0°c 72°f
Dew point:19.0°c 66°f
Wind:5 knots, 5.8 mph, 3 m/s, from 130°
Visibility:6.21 statute miles
2000(SCT) Scattered
No significant weather changes expected within 2 hours.
LIBR 191345Z 13005KT 9999 SCT020 22/19 Q1018 NOSIG RMK SCT VIS MIN 9999 WIND THR31 13005KT BLU
VFR 13:15:00 19-10-17
Altimeter:30.06 hg
Temp:22.0°c 72°f
Dew point:19.0°c 66°f
Wind:14 knots, 16.1 mph, 7 m/s, from 90°
Visibility:6.21 statute miles
2000(SCT) Scattered
No significant weather changes expected within 2 hours.
LIBR 191315Z 09014KT 9999 SCT020 22/19 Q1018 NOSIG
VFR 12:45:00 19-10-17
Altimeter:30.06 hg
Temp:23.0°c 73°f
Dew point:19.0°c 66°f
Wind:13 knots, 15 mph, 7 m/s, from 100°
Visibility:6.21 statute miles
1800(SCT) Scattered
No significant weather changes expected within 2 hours.
LIBR 191245Z 10013KT 9999 SCT018 23/19 Q1018 NOSIG RMK SCT VIS MIN 9999 WIND THR31 13006KT BLU
TAF
TAF LIBR 191100Z 1912/2012 12010KT 7000 SCT015 BECMG 1916/1917 18006KT 3000 BR SCT005 BECMG 1920/1922 0800 FG BKN004 TEMPO 2002/2007 VRB03KT 0200 FG BKN002 BECMG 2007/2009 12008KT 5000 BR SCT008
Forecast at LIBR
12:00 19-10-17 to 16:00 19-10-17
Wind:10 Knots from 120°
Visibility:4.35 statute miles
1500SCT Scattered
BECMG 16:00 19-10-17 to 20:00 19-10-17
BR
Wind:6 Knots from 180°
Visibility:1.86 statute miles
500SCT Scattered
BECMG 20:00 19-10-17 to 07:00 20-10-17
FG
Wind:6 Knots from 180°
Visibility:0.5 statute miles
400BKN Broken
TEMPO 02:00 20-10-17 to 07:00 20-10-17
FG
Wind:3 Knots from 360°
Visibility:0.12 statute miles
200BKN Broken
BECMG 07:00 20-10-17 to 12:00 20-10-17
BR
Wind:8 Knots from 120°
Visibility:3.11 statute miles
800SCT Scattered